createdAt,value
2022-08-06T00:01:01.198Z,101669.16
2022-08-06T00:06:02.943Z,101673.47
2022-08-06T00:11:04.672Z,101678.72
2022-08-06T00:16:30.717Z,101680.47
2022-08-06T00:21:41.822Z,101683.03
2022-08-06T00:26:51.701Z,101688.22
2022-08-06T00:32:06.292Z,101682.13
2022-08-06T00:37:18.788Z,101695.22
2022-08-06T00:42:21.102Z,101699.47
2022-08-06T00:47:41.297Z,101702.91
2022-08-06T00:52:47.019Z,101708.13
2022-08-06T00:57:49.470Z,101710.69
2022-08-06T01:02:53.048Z,101715.91
2022-08-06T01:07:55.565Z,101727.94
2022-08-06T01:12:57.244Z,101722.59
2022-08-06T01:18:05.493Z,101733.06
2022-08-06T01:23:19.351Z,101727.72
2022-08-06T01:28:28.752Z,101732.97
2022-08-06T01:33:46.666Z,101732.91
2022-08-06T01:38:59.354Z,101733.69
2022-08-06T01:44:06.531Z,101733.50
2022-08-06T01:49:26.435Z,101736.88
2022-08-06T01:54:31.295Z,101735.13
2022-08-06T01:59:34.646Z,101745.44
2022-08-06T02:04:40.066Z,101735.81
2022-08-06T02:09:42.861Z,101744.59
2022-08-06T02:14:56.608Z,101740.97
2022-08-06T02:20:11.443Z,101737.50
2022-08-06T02:25:22.246Z,101743.59
2022-08-06T02:30:35.316Z,101737.56
2022-08-06T02:36:20.674Z,101740.09
2022-08-06T02:41:32.081Z,101743.59
2022-08-06T02:47:03.394Z,101755.66
2022-08-06T02:52:11.833Z,101758.31
2022-08-06T02:57:48.465Z,101761.81
2022-08-06T03:02:56.193Z,101758.47
2022-08-06T03:07:57.971Z,101773.34
2022-08-06T03:12:59.670Z,101779.31
2022-08-06T03:18:05.737Z,101779.97
2022-08-06T03:23:09.928Z,101787.63
2022-08-06T03:28:12.560Z,101796.19
2022-08-06T03:33:42.033Z,101800.38
2022-08-06T03:39:02.397Z,101801.88
2022-08-06T03:44:05.173Z,101809.59
2022-08-06T03:49:10.007Z,101819.94
2022-08-06T03:54:15.146Z,101825.97
2022-08-06T03:59:38.024Z,101832.88
2022-08-06T04:04:51.245Z,101843.31
2022-08-06T04:09:59.257Z,101845.03
2022-08-06T04:15:07.666Z,101847.59
2022-08-06T04:20:12.785Z,101862.41
2022-08-06T04:25:14.533Z,101866.66
2022-08-06T04:30:16.225Z,101868.59
2022-08-06T04:36:05.100Z,101874.81
2022-08-06T04:40:41.485Z,101887.06
2022-08-06T04:46:18.346Z,101897.66
2022-08-06T04:52:36.194Z,101899.41
2022-08-06T04:56:48.435Z,101899.56
2022-08-06T05:01:57.119Z,101914.31
2022-08-06T05:07:19.538Z,101916.13
2022-08-06T05:12:33.532Z,101925.94
2022-08-06T05:17:38.261Z,101931.25
2022-08-06T05:22:54.189Z,101937.59
2022-08-06T05:28:09.588Z,101943.59
2022-08-06T05:33:16.928Z,101957.16
2022-08-06T05:38:21.155Z,101956.44
2022-08-06T05:43:58.224Z,101960.88
2022-08-06T05:49:57.890Z,101958.59
2022-08-06T05:54:52.760Z,101973.53
2022-08-06T06:00:01.214Z,101979.03
2022-08-06T06:06:03.313Z,101976.75
2022-08-06T06:10:26.321Z,101978.72
2022-08-06T06:16:01.891Z,101981.56
2022-08-06T06:21:03.394Z,101972.22
2022-08-06T06:26:37.342Z,101979.59
2022-08-06T06:32:07.597Z,101985.91
2022-08-06T06:37:40.601Z,101988.69
2022-08-06T06:42:57.084Z,101995.91
2022-08-06T06:48:18.327Z,101994.31
2022-08-06T06:53:20.233Z,102003.38
2022-08-06T06:58:47.354Z,101991.31
2022-08-06T07:03:49.851Z,102005.34
2022-08-06T07:08:52.207Z,102008.16
2022-08-06T07:13:58.874Z,102008.31
2022-08-06T07:19:01.453Z,102006.56
2022-08-06T07:24:33.423Z,102002.22
2022-08-06T07:29:49.366Z,102011.88
2022-08-06T07:34:47.030Z,102018.94
2022-08-06T07:39:48.887Z,102023.38
2022-08-06T07:44:56.790Z,102021.63
2022-08-06T07:50:00.323Z,102032.19
2022-08-06T07:55:03.176Z,102032.28
2022-08-06T08:00:06.516Z,102038.53
2022-08-06T08:05:39.576Z,102042.03
2022-08-06T08:10:43.049Z,102046.53
2022-08-06T08:15:46.087Z,102045.69
2022-08-06T08:20:53.278Z,102055.34
2022-08-06T08:25:59.679Z,102055.44
2022-08-06T08:31:11.023Z,102052.03
2022-08-06T08:36:30.699Z,102058.25
2022-08-06T08:41:48.408Z,102059.19
2022-08-06T08:46:57.354Z,102062.75
2022-08-06T08:51:59.845Z,102066.22
2022-08-06T08:58:36.220Z,102070.63
2022-08-06T09:02:28.060Z,102067.13
2022-08-06T09:07:35.454Z,102068.94
2022-08-06T09:12:44.882Z,102063.72
2022-08-06T09:18:11.200Z,102074.28
2022-08-06T09:23:12.123Z,102072.50
2022-08-06T09:28:42.749Z,102070.75
2022-08-06T09:34:19.200Z,102067.25
2022-08-06T09:39:59.891Z,102066.38
2022-08-06T09:45:15.144Z,102064.59
2022-08-06T09:50:38.141Z,102061.06
2022-08-06T09:55:41.462Z,102065.47
2022-08-06T10:00:46.401Z,102056.63
2022-08-06T10:06:06.448Z,102064.47
2022-08-06T10:11:12.763Z,102064.47
2022-08-06T10:16:18.973Z,102056.59
2022-08-06T10:21:26.783Z,102053.94
2022-08-06T10:26:33.355Z,102055.69
2022-08-06T10:31:36.697Z,102045.00
2022-08-06T10:36:50.505Z,102040.56
2022-08-06T10:42:01.273Z,102043.13
2022-08-06T10:47:05.684Z,102037.72
2022-08-06T10:52:08.281Z,102032.34
2022-08-06T10:57:13.331Z,102030.47
2022-08-06T11:02:34.010Z,102027.78
2022-08-06T11:08:09.491Z,102022.13
2022-08-06T11:13:37.510Z,102021.84
2022-08-06T11:19:02.793Z,102014.59
2022-08-06T11:24:09.643Z,102017.97
2022-08-06T11:29:12.654Z,102014.97
2022-08-06T11:34:34.460Z,102013.41
2022-08-06T11:40:14.244Z,102008.13
2022-08-06T11:46:19.942Z,102026.34
2022-08-06T11:50:39.012Z,102033.25
2022-08-06T11:56:05.707Z,102022.69
2022-08-06T12:01:33.656Z,102035.06
2022-08-06T12:06:33.426Z,102028.25
2022-08-06T12:11:37.219Z,102015.16
2022-08-06T12:16:44.698Z,102004.97
2022-08-06T12:21:56.743Z,102024.25
2022-08-06T12:26:59.325Z,102001.34
2022-08-06T12:32:01.609Z,102003.72
2022-08-06T12:37:03.600Z,102005.28
2022-08-06T12:42:05.298Z,101992.78
2022-08-06T12:47:13.675Z,101982.06
2022-08-06T12:52:20.007Z,101978.78
2022-08-06T12:57:59.369Z,101986.22
2022-08-06T13:02:54.114Z,101974.53
2022-08-06T13:07:57.721Z,101989.06
2022-08-06T13:14:15.372Z,101971.28
2022-08-06T13:18:40.909Z,101973.91
2022-08-06T13:23:53.319Z,101979.34
2022-08-06T13:30:31.465Z,101975.00
2022-08-06T13:34:30.161Z,101981.69
2022-08-06T13:39:32.149Z,101980.06
2022-08-06T13:44:44.912Z,101983.94
2022-08-06T13:50:00.623Z,101980.13
2022-08-06T13:55:07.328Z,101976.00
2022-08-06T14:00:11.487Z,101968.13
2022-08-06T14:05:23.051Z,101971.25
2022-08-06T14:10:29.650Z,101959.31
2022-08-06T14:15:42.148Z,101968.38
2022-08-06T14:20:44.209Z,101967.03
2022-08-06T14:26:00.012Z,101956.22
2022-08-06T14:31:08.573Z,101962.25
2022-08-06T14:36:10.551Z,101946.91
2022-08-06T14:41:51.397Z,101946.38
2022-08-06T14:46:52.881Z,101950.53
2022-08-06T14:52:19.741Z,101945.19
2022-08-06T14:57:16.695Z,101941.91
2022-08-06T15:02:18.640Z,101951.00
2022-08-06T15:07:35.581Z,101947.84
2022-08-06T15:12:51.137Z,101939.94
2022-08-06T15:18:14.225Z,101954.84
2022-08-06T15:23:23.633Z,101940.53
2022-08-06T15:28:33.048Z,101940.16
2022-08-06T15:33:34.946Z,101935.63
2022-08-06T15:38:38.766Z,101930.84
2022-08-06T15:43:44.290Z,101930.22
2022-08-06T15:48:47.119Z,101933.25
2022-08-06T15:53:58.097Z,101929.41
2022-08-06T15:59:01.099Z,101915.72
2022-08-06T16:04:02.981Z,101913.13
2022-08-06T16:09:06.242Z,101912.19
2022-08-06T16:14:11.981Z,101915.84
2022-08-06T16:19:20.920Z,101913.84
2022-08-06T16:24:23.679Z,101906.81
2022-08-06T16:29:28.170Z,101904.75
2022-08-06T16:34:36.844Z,101898.91
2022-08-06T16:39:38.917Z,101908.06
2022-08-06T16:45:02.668Z,101904.94
2022-08-06T16:50:19.123Z,101906.53
2022-08-06T16:55:34.011Z,101903.84
2022-08-06T17:01:00.636Z,101906.63
2022-08-06T17:06:00.249Z,101905.47
2022-08-06T17:11:02.989Z,101906.03
2022-08-06T17:16:29.517Z,101901.88
2022-08-06T17:21:58.333Z,101902.72
2022-08-06T17:26:53.478Z,101897.84
2022-08-06T17:31:59.020Z,101904.09
2022-08-06T17:37:03.837Z,101907.41
2022-08-06T17:42:26.439Z,101905.09
2022-08-06T17:47:51.039Z,101910.44
2022-08-06T17:52:50.386Z,101911.81
2022-08-06T17:58:33.199Z,101916.16
2022-08-06T18:03:14.198Z,101918.19
2022-08-06T18:08:36.315Z,101931.53
2022-08-06T18:13:52.933Z,101937.16
2022-08-06T18:18:56.147Z,101932.41
2022-08-06T18:24:00.588Z,101935.25
2022-08-06T18:29:06.496Z,101936.59
2022-08-06T18:34:16.185Z,101936.97
2022-08-06T18:39:23.044Z,101942.25
2022-08-06T18:44:27.306Z,101938.31
2022-08-06T18:49:38.908Z,101942.09
2022-08-06T18:54:56.577Z,101950.50
2022-08-06T18:59:59.822Z,101948.34
2022-08-06T19:05:01.609Z,101954.97
2022-08-06T19:10:04.335Z,101956.25
2022-08-06T19:15:19.664Z,101963.66
2022-08-06T19:20:30.742Z,101973.03
2022-08-06T19:25:41.806Z,101975.13
2022-08-06T19:30:54.602Z,101978.13
2022-08-06T19:36:11.818Z,101976.59
2022-08-06T19:41:19.632Z,101978.59
2022-08-06T19:46:56.372Z,101987.75
2022-08-06T19:52:04.749Z,101988.88
2022-08-06T19:57:09.283Z,101982.88
2022-08-06T20:02:16.126Z,101997.16
2022-08-06T20:07:24.758Z,102002.56
2022-08-06T20:12:32.025Z,102006.22
2022-08-06T20:17:49.506Z,102000.13
2022-08-06T20:22:52.304Z,102009.03
2022-08-06T20:29:07.898Z,102004.72
2022-08-06T20:33:23.828Z,102005.56
2022-08-06T20:38:40.231Z,102015.28
2022-08-06T20:44:06.878Z,102016.16
2022-08-06T20:49:10.246Z,102017.97
2022-08-06T20:54:17.073Z,102018.84
2022-08-06T20:59:19.351Z,102026.78
2022-08-06T21:05:15.563Z,102028.53
2022-08-06T21:09:45.266Z,102038.22
2022-08-06T21:14:47.948Z,102034.69
2022-08-06T21:20:09.552Z,102046.09
2022-08-06T21:25:14.801Z,102046.88
2022-08-06T21:30:29.497Z,102054.72
2022-08-06T21:35:34.278Z,102053.81
2022-08-06T21:40:36.915Z,102050.34
2022-08-06T21:45:58.409Z,102049.41
2022-08-06T21:51:00.826Z,102053.72
2022-08-06T21:56:37.980Z,102057.22
2022-08-06T22:01:24.986Z,102048.41
2022-08-06T22:06:47.329Z,102046.66
2022-08-06T22:12:37.371Z,102051.84
2022-08-06T22:17:59.027Z,102043.94
2022-08-06T22:22:39.090Z,102036.00
2022-08-06T22:27:42.105Z,102041.38
2022-08-06T22:32:56.173Z,102037.91
2022-08-06T22:38:19.416Z,102041.44
2022-08-06T22:43:28.003Z,102043.16
2022-08-06T22:48:43.805Z,102037.88
2022-08-06T22:54:28.689Z,102035.13
2022-08-06T22:59:31.790Z,102035.88
2022-08-06T23:04:33.830Z,102030.34
2022-08-06T23:09:35.888Z,102032.88
2022-08-06T23:14:38.943Z,102022.13
2022-08-06T23:19:56.308Z,102028.13
2022-08-06T23:25:59.362Z,102028.00
2022-08-06T23:30:21.999Z,102020.94
2022-08-06T23:35:35.830Z,102013.22
2022-08-06T23:40:38.828Z,102009.84
2022-08-06T23:45:41.505Z,102011.53
2022-08-06T23:50:53.280Z,102009.53
2022-08-06T23:55:59.848Z,102017.56
